createdAt,value
2018-12-15T00:00:33.227Z,-0.87
2018-12-15T00:03:02.877Z,-0.91
2018-12-15T00:05:32.393Z,-0.88
2018-12-15T00:08:01.948Z,-0.87
2018-12-15T00:10:31.596Z,-0.79
2018-12-15T00:13:01.128Z,-0.77
2018-12-15T00:15:30.687Z,-0.81
2018-12-15T00:18:00.324Z,-0.78
2018-12-15T00:20:29.949Z,-0.77
2018-12-15T00:22:59.526Z,-0.69
2018-12-15T00:25:29.114Z,-0.63
2018-12-15T00:27:59.525Z,-0.76
2018-12-15T00:30:29.152Z,-0.77
2018-12-15T00:32:58.628Z,-0.75
2018-12-15T00:35:28.238Z,-0.78
2018-12-15T00:37:57.913Z,-0.81
2018-12-15T00:40:27.699Z,-0.84
2018-12-15T00:42:57.219Z,-0.85
2018-12-15T00:45:26.717Z,-0.87
2018-12-15T00:47:56.273Z,-0.80
2018-12-15T00:52:58.644Z,-0.93
2018-12-15T00:55:28.369Z,-0.94
2018-12-15T00:57:58.116Z,-0.90
2018-12-15T01:00:27.599Z,-0.88
2018-12-15T01:02:57.231Z,-0.94
2018-12-15T01:05:26.839Z,-0.92
2018-12-15T01:07:56.520Z,-0.91
2018-12-15T01:10:26.045Z,-0.94
2018-12-15T01:12:55.820Z,-1.00
2018-12-15T01:15:30.443Z,-0.89
2018-12-15T01:18:00.039Z,-1.00
2018-12-15T01:20:29.573Z,-0.90
2018-12-15T01:22:59.216Z,-0.99
2018-12-15T01:25:28.817Z,-0.99
2018-12-15T01:27:58.434Z,-0.93
2018-12-15T01:30:28.055Z,-0.78
2018-12-15T01:32:57.674Z,-0.86
2018-12-15T01:35:27.222Z,-0.99
2018-12-15T01:37:56.797Z,-0.91
2018-12-15T01:40:26.271Z,-0.82
2018-12-15T01:42:55.805Z,-0.82
2018-12-15T01:45:25.308Z,-0.87
2018-12-15T01:47:54.868Z,-0.93
2018-12-15T01:50:24.508Z,-1.00
2018-12-15T01:52:54.037Z,-0.91
2018-12-15T01:55:23.819Z,-0.99
2018-12-15T01:57:53.708Z,-1.01
2018-12-15T02:00:23.439Z,-0.99
2018-12-15T02:02:52.943Z,-1.01
2018-12-15T02:05:22.484Z,-0.96
2018-12-15T02:07:51.997Z,-1.07
2018-12-15T02:10:21.545Z,-1.02
2018-12-15T02:12:51.057Z,-0.95
2018-12-15T02:15:20.608Z,-0.98
2018-12-15T02:17:50.128Z,-1.06
2018-12-15T02:20:19.668Z,-1.08
2018-12-15T02:22:49.449Z,-1.05
2018-12-15T02:25:19.007Z,-1.08
2018-12-15T02:27:48.550Z,-1.13
2018-12-15T02:30:23.424Z,-1.14
2018-12-15T02:32:52.991Z,-1.04
2018-12-15T02:35:22.587Z,-1.05
2018-12-15T02:37:52.092Z,-1.16
2018-12-15T02:40:21.649Z,-1.14
2018-12-15T02:42:51.275Z,-1.12
2018-12-15T02:45:20.880Z,-1.14
2018-12-15T02:47:50.387Z,-1.07
2018-12-15T02:50:19.912Z,-0.97
2018-12-15T02:52:49.580Z,-1.03
2018-12-15T02:55:19.471Z,-1.09
2018-12-15T02:57:48.996Z,-1.03
2018-12-15T03:00:18.525Z,-1.06
2018-12-15T03:02:48.018Z,-1.08
2018-12-15T03:05:17.667Z,-1.06
2018-12-15T03:07:47.295Z,-0.99
2018-12-15T03:10:16.859Z,-1.00
2018-12-15T03:12:46.516Z,-1.00
2018-12-15T03:15:16.047Z,-1.01
2018-12-15T03:17:48.873Z,-0.98
2018-12-15T03:20:17.232Z,-0.96
2018-12-15T03:22:46.749Z,-0.98
2018-12-15T03:25:16.254Z,-0.92
2018-12-15T03:27:45.756Z,-1.00
2018-12-15T03:30:15.489Z,-0.86
2018-12-15T03:32:45.326Z,-0.83
2018-12-15T03:35:14.834Z,-0.84
2018-12-15T03:37:44.483Z,-0.92
2018-12-15T03:40:14.114Z,-0.97
2018-12-15T03:42:44.241Z,-0.96
2018-12-15T03:45:13.841Z,-1.00
2018-12-15T03:47:43.349Z,-0.94
2018-12-15T03:50:12.854Z,-0.97
2018-12-15T03:52:42.373Z,-0.90
2018-12-15T03:55:11.944Z,-0.91
2018-12-15T03:57:41.444Z,-0.97
2018-12-15T04:00:10.999Z,-1.02
2018-12-15T04:02:40.515Z,-0.97
2018-12-15T04:05:09.997Z,-0.99
2018-12-15T04:07:39.691Z,-0.92
2018-12-15T04:10:09.363Z,-0.95
2018-12-15T04:12:38.864Z,-0.99
2018-12-15T04:15:08.369Z,-0.97
2018-12-15T04:17:37.848Z,-1.00
2018-12-15T04:20:07.387Z,-0.94
2018-12-15T04:22:36.917Z,-0.93
2018-12-15T04:25:06.671Z,-1.06
2018-12-15T04:27:36.495Z,-0.97
2018-12-15T04:30:07.542Z,-0.90
2018-12-15T04:32:37.116Z,-0.92
2018-12-15T04:35:06.690Z,-0.96
2018-12-15T04:37:36.551Z,-0.79
2018-12-15T04:40:07.623Z,-0.88
2018-12-15T04:42:37.155Z,-0.97
2018-12-15T04:45:06.924Z,-0.89
2018-12-15T04:47:36.534Z,-0.85
2018-12-15T04:50:06.378Z,-0.90
2018-12-15T04:52:36.007Z,-0.87
2018-12-15T04:55:06.008Z,-0.90
2018-12-15T04:57:35.546Z,-0.94
2018-12-15T05:00:06.044Z,-0.99
2018-12-15T05:02:35.520Z,-0.86
2018-12-15T05:05:05.199Z,-0.84
2018-12-15T05:07:34.779Z,-0.80
2018-12-15T05:10:04.829Z,-0.84
2018-12-15T05:12:34.391Z,-0.81
2018-12-15T05:15:03.947Z,-0.99
2018-12-15T05:17:33.620Z,-0.96
2018-12-15T05:20:03.305Z,-0.91
2018-12-15T05:22:32.786Z,-0.86
2018-12-15T05:25:02.268Z,-0.84
2018-12-15T05:27:31.883Z,-0.83
2018-12-15T05:30:01.717Z,-0.88
2018-12-15T05:32:31.243Z,-0.94
2018-12-15T05:35:00.781Z,-0.86
2018-12-15T05:37:30.344Z,-0.98
2018-12-15T05:40:00.135Z,-0.95
2018-12-15T05:42:29.658Z,-0.93
2018-12-15T05:44:59.156Z,-1.02
2018-12-15T05:47:28.669Z,-1.03
2018-12-15T05:49:58.239Z,-0.94
2018-12-15T05:52:27.764Z,-0.84
2018-12-15T05:54:57.399Z,-0.91
2018-12-15T05:57:26.897Z,-0.86
2018-12-15T05:59:56.445Z,-0.89
2018-12-15T06:02:26.628Z,-0.85
2018-12-15T06:04:56.704Z,-0.83
2018-12-15T06:07:26.248Z,-0.91
2018-12-15T06:09:55.876Z,-0.90
2018-12-15T06:12:25.419Z,-0.99
2018-12-15T06:14:55.064Z,-1.01
2018-12-15T06:17:24.584Z,-1.07
2018-12-15T06:19:54.097Z,-0.95
2018-12-15T06:22:23.594Z,-0.98
2018-12-15T06:24:53.138Z,-0.96
2018-12-15T06:27:22.673Z,-0.87
2018-12-15T06:29:52.432Z,-0.95
2018-12-15T06:32:22.017Z,-1.03
2018-12-15T06:34:51.608Z,-1.02
2018-12-15T06:37:34.635Z,-0.89
2018-12-15T06:40:04.984Z,-0.91
2018-12-15T06:42:34.576Z,-0.88
2018-12-15T06:45:04.501Z,-0.75
2018-12-15T06:47:34.057Z,-0.69
2018-12-15T06:50:03.763Z,-0.80
2018-12-15T06:52:33.308Z,-0.85
2018-12-15T06:55:02.853Z,-0.77
2018-12-15T06:57:32.515Z,-0.84
2018-12-15T07:00:02.301Z,-0.78
2018-12-15T07:02:31.839Z,-0.80
2018-12-15T07:05:01.502Z,-0.81
2018-12-15T07:07:31.043Z,-0.72
2018-12-15T07:10:00.571Z,-0.75
2018-12-15T07:12:30.082Z,-0.80
2018-12-15T07:14:59.778Z,-0.75
2018-12-15T07:17:29.654Z,-0.73
2018-12-15T07:19:59.263Z,-0.63
2018-12-15T07:22:28.810Z,-0.61
2018-12-15T07:24:58.672Z,-0.66
2018-12-15T07:27:28.481Z,-0.64
2018-12-15T07:29:57.983Z,-0.65
2018-12-15T07:32:27.515Z,-0.74
2018-12-15T07:35:00.936Z,-0.61
2018-12-15T07:37:28.888Z,-0.52
2018-12-15T07:39:58.563Z,-0.68
2018-12-15T07:42:28.082Z,-0.60
2018-12-15T07:44:57.649Z,-0.61
2018-12-15T07:47:27.274Z,-0.69
2018-12-15T07:49:56.827Z,-0.66
2018-12-15T07:52:26.484Z,-0.60
2018-12-15T07:54:56.019Z,-0.65
2018-12-15T07:57:25.571Z,-0.54
2018-12-15T07:59:55.196Z,-0.50
2018-12-15T08:02:24.737Z,-0.57
2018-12-15T08:04:54.243Z,-0.47
2018-12-15T08:07:23.884Z,-0.45
2018-12-15T08:09:53.529Z,-0.34
2018-12-15T08:12:28.156Z,-0.41
2018-12-15T08:14:57.720Z,-0.47
2018-12-15T08:17:27.403Z,-0.44
2018-12-15T08:19:57.072Z,-0.31
2018-12-15T08:22:26.619Z,-0.35
2018-12-15T08:24:56.219Z,-0.27
2018-12-15T08:27:25.724Z,-0.34
2018-12-15T08:29:55.305Z,-0.23
2018-12-15T08:32:24.873Z,-0.28
2018-12-15T08:34:54.448Z,-0.20
2018-12-15T08:37:23.953Z,-0.06
2018-12-15T08:39:54.104Z,-0.05
2018-12-15T08:42:23.781Z,-0.03
2018-12-15T08:44:53.388Z,-0.11
2018-12-15T08:47:22.894Z,-0.08
2018-12-15T08:49:52.472Z,-0.21
2018-12-15T08:52:22.136Z,-0.17
2018-12-15T08:54:52.056Z,0.03
2018-12-15T08:57:26.045Z,-0.09
2018-12-15T08:59:55.674Z,-0.04
2018-12-15T09:02:26.070Z,0.00
2018-12-15T09:04:55.676Z,0.17
2018-12-15T09:07:25.237Z,0.14
2018-12-15T09:09:54.763Z,0.10
2018-12-15T09:12:24.304Z,-0.03
2018-12-15T09:14:53.902Z,-0.01
2018-12-15T09:17:23.685Z,0.13
2018-12-15T09:19:53.349Z,0.30
2018-12-15T09:22:22.941Z,0.52
2018-12-15T09:24:52.479Z,0.57
2018-12-15T09:27:22.167Z,0.59
2018-12-15T09:29:51.831Z,0.43
2018-12-15T09:32:21.316Z,0.33
2018-12-15T09:34:50.827Z,0.32
2018-12-15T09:37:20.392Z,0.55
2018-12-15T09:39:49.949Z,0.41
2018-12-15T09:42:19.640Z,0.30
2018-12-15T09:44:50.152Z,0.32
2018-12-15T09:47:19.875Z,0.20
2018-12-15T09:49:49.687Z,0.04
2018-12-15T09:52:19.295Z,0.08
2018-12-15T09:54:48.870Z,0.07
2018-12-15T09:57:18.483Z,0.03
2018-12-15T09:59:48.144Z,0.15
2018-12-15T10:02:18.759Z,0.01
2018-12-15T10:04:48.506Z,0.03
2018-12-15T10:07:18.568Z,0.06
2018-12-15T10:09:48.179Z,-0.09
2018-12-15T10:12:17.875Z,-0.07
2018-12-15T10:14:47.423Z,0.00
2018-12-15T10:17:16.988Z,0.07
2018-12-15T10:19:46.713Z,0.18
2018-12-15T10:22:16.399Z,0.06
2018-12-15T10:24:46.050Z,0.00
2018-12-15T10:27:15.723Z,0.10
2018-12-15T10:29:50.319Z,0.29
2018-12-15T10:32:25.048Z,0.54
2018-12-15T10:34:55.623Z,0.48
2018-12-15T10:37:25.288Z,0.45
2018-12-15T10:39:54.856Z,0.60
2018-12-15T10:42:24.512Z,0.47
2018-12-15T10:44:54.125Z,0.46
2018-12-15T10:47:23.853Z,0.56
2018-12-15T10:49:53.492Z,0.46
2018-12-15T10:52:23.147Z,0.42
2018-12-15T10:54:52.691Z,0.32
2018-12-15T10:57:22.371Z,0.33
2018-12-15T10:59:51.887Z,0.35
2018-12-15T11:02:21.464Z,0.38
2018-12-15T11:04:51.039Z,0.62
2018-12-15T11:07:20.674Z,0.65
2018-12-15T11:09:50.237Z,0.57
2018-12-15T11:12:19.786Z,0.51
2018-12-15T11:14:49.382Z,0.50
2018-12-15T11:17:18.926Z,0.42
2018-12-15T11:19:48.552Z,0.52
2018-12-15T11:22:18.120Z,0.47
2018-12-15T11:24:47.815Z,0.58
2018-12-15T11:27:17.560Z,0.75
2018-12-15T11:29:47.327Z,0.56
2018-12-15T11:32:17.085Z,0.44
2018-12-15T11:34:46.616Z,0.42
2018-12-15T11:37:16.256Z,0.39
2018-12-15T11:39:45.983Z,0.42
2018-12-15T11:42:15.534Z,0.48
2018-12-15T11:44:45.092Z,0.38
2018-12-15T11:47:14.816Z,0.26
2018-12-15T11:49:44.316Z,0.15
2018-12-15T11:52:13.946Z,0.16
2018-12-15T11:54:43.498Z,0.26
2018-12-15T11:57:13.670Z,0.14
2018-12-15T11:59:43.271Z,0.03
2018-12-15T12:02:12.824Z,0.10
2018-12-15T12:04:42.452Z,0.01
2018-12-15T12:07:12.073Z,-0.05
2018-12-15T12:09:41.712Z,0.09
2018-12-15T12:12:11.296Z,0.11
2018-12-15T12:14:41.094Z,0.23
2018-12-15T12:17:10.669Z,0.28
2018-12-15T12:19:40.177Z,0.24
2018-12-15T12:22:10.102Z,0.31
2018-12-15T12:24:39.942Z,0.19
2018-12-15T12:27:29.900Z,0.21
2018-12-15T12:29:59.515Z,0.31
2018-12-15T12:32:29.191Z,0.19
2018-12-15T12:34:58.804Z,0.19
2018-12-15T12:37:28.424Z,0.19
2018-12-15T12:39:57.985Z,0.34
2018-12-15T12:42:27.723Z,0.25
2018-12-15T12:44:57.292Z,0.18
2018-12-15T12:47:26.839Z,0.07
2018-12-15T12:49:56.989Z,0.19
2018-12-15T12:52:26.643Z,0.21
2018-12-15T12:54:56.528Z,0.13
2018-12-15T12:57:26.139Z,0.16
2018-12-15T12:59:55.708Z,0.27
2018-12-15T13:02:25.400Z,0.22
2018-12-15T13:04:55.064Z,0.05
2018-12-15T13:07:24.819Z,0.06
2018-12-15T13:09:54.348Z,0.01
2018-12-15T13:12:24.062Z,0.23
2018-12-15T13:14:53.632Z,0.10
2018-12-15T13:17:23.286Z,0.10
2018-12-15T13:19:53.062Z,0.14
2018-12-15T13:22:22.670Z,0.20
2018-12-15T13:24:52.279Z,0.03
2018-12-15T13:27:21.892Z,-0.03
2018-12-15T13:29:51.595Z,-0.17
2018-12-15T13:32:21.180Z,-0.14
2018-12-15T13:34:50.910Z,-0.17
2018-12-15T13:37:20.452Z,-0.26
2018-12-15T13:39:50.051Z,-0.18
2018-12-15T13:42:20.449Z,-0.14
2018-12-15T13:44:50.140Z,-0.16
2018-12-15T13:47:19.739Z,-0.26
2018-12-15T13:49:49.270Z,-0.22
2018-12-15T13:52:18.978Z,-0.11
2018-12-15T13:54:48.611Z,-0.12
2018-12-15T13:57:18.222Z,-0.11
2018-12-15T13:59:48.621Z,-0.08
2018-12-15T14:02:18.305Z,-0.18
2018-12-15T14:04:47.902Z,-0.26
2018-12-15T14:07:17.572Z,-0.19
2018-12-15T14:09:47.316Z,-0.20
2018-12-15T14:12:16.969Z,-0.22
2018-12-15T14:14:46.929Z,-0.23
2018-12-15T14:17:17.299Z,-0.24
2018-12-15T14:19:47.013Z,-0.26
2018-12-15T14:22:16.715Z,-0.20
2018-12-15T14:24:46.256Z,-0.15
2018-12-15T14:27:15.912Z,-0.14
2018-12-15T14:29:45.510Z,-0.23
2018-12-15T14:32:15.215Z,-0.24
2018-12-15T14:34:44.793Z,-0.14
2018-12-15T14:37:14.452Z,-0.13
2018-12-15T14:39:44.669Z,-0.20
2018-12-15T14:42:14.487Z,-0.22
2018-12-15T14:44:44.056Z,-0.08
2018-12-15T14:47:13.778Z,-0.17
2018-12-15T14:49:43.353Z,-0.13
2018-12-15T14:52:13.036Z,-0.18
2018-12-15T14:54:42.795Z,-0.13
2018-12-15T14:57:12.653Z,-0.18
2018-12-15T14:59:42.417Z,-0.24
2018-12-15T15:02:11.984Z,-0.31
2018-12-15T15:04:41.837Z,-0.44
2018-12-15T15:07:11.501Z,-0.42
2018-12-15T15:09:41.056Z,-0.41
2018-12-15T15:12:10.612Z,-0.42
2018-12-15T15:14:40.264Z,-0.43
2018-12-15T15:17:09.911Z,-0.38
2018-12-15T15:19:39.671Z,-0.35
2018-12-15T15:22:09.308Z,-0.38
2018-12-15T15:24:38.872Z,-0.42
2018-12-15T15:27:10.062Z,-0.47
2018-12-15T15:29:39.604Z,-0.45
2018-12-15T15:32:09.234Z,-0.42
2018-12-15T15:34:38.881Z,-0.44
2018-12-15T15:37:08.576Z,-0.39
2018-12-15T15:39:38.102Z,-0.37
2018-12-15T15:42:07.722Z,-0.30
2018-12-15T15:44:38.055Z,-0.41
2018-12-15T15:52:36.784Z,-0.45
2018-12-15T15:55:07.510Z,-0.33
2018-12-15T15:57:37.960Z,-0.39
2018-12-15T16:00:09.605Z,-0.32
2018-12-15T16:02:39.766Z,-0.29
2018-12-15T16:05:09.727Z,-0.33
2018-12-15T16:07:39.597Z,-0.28
2018-12-15T16:10:11.205Z,-0.27
2018-12-15T16:12:40.749Z,-0.32
2018-12-15T16:15:10.987Z,-0.26
2018-12-15T16:17:40.988Z,-0.27
2018-12-15T16:20:12.612Z,-0.27
2018-12-15T16:22:42.411Z,-0.23
2018-12-15T16:25:11.975Z,-0.30
2018-12-15T16:27:41.538Z,-0.24
2018-12-15T16:30:12.655Z,-0.30
2018-12-15T16:32:42.211Z,-0.29
2018-12-15T16:35:11.835Z,-0.26
2018-12-15T16:37:41.505Z,-0.22
2018-12-15T16:40:13.564Z,-0.27
2018-12-15T16:42:45.892Z,-0.25
2018-12-15T16:45:20.050Z,-0.16
2018-12-15T16:47:51.459Z,-0.23
2018-12-15T16:50:23.119Z,-0.30
2018-12-15T16:52:55.528Z,-0.17
2018-12-15T16:55:35.080Z,-0.10
2018-12-15T16:58:04.973Z,-0.15
2018-12-15T17:00:34.557Z,-0.15
2018-12-15T17:03:04.242Z,-0.26
2018-12-15T17:05:34.014Z,-0.29
2018-12-15T17:08:03.696Z,-0.29
2018-12-15T17:10:33.332Z,-0.35
2018-12-15T17:13:02.893Z,-0.38
2018-12-15T17:15:32.644Z,-0.43
2018-12-15T17:18:02.277Z,-0.40
2018-12-15T17:20:31.868Z,-0.38
2018-12-15T17:23:01.433Z,-0.41
2018-12-15T17:25:31.080Z,-0.42
2018-12-15T17:28:00.606Z,-0.43
2018-12-15T17:30:30.781Z,-0.38
2018-12-15T17:33:00.338Z,-0.37
2018-12-15T17:35:30.155Z,-0.27
2018-12-15T17:38:00.792Z,-0.27
2018-12-15T17:40:30.397Z,-0.43
2018-12-15T17:43:00.191Z,-0.41
2018-12-15T17:45:29.724Z,-0.35
2018-12-15T17:47:59.437Z,-0.27
2018-12-15T17:50:29.327Z,-0.35
2018-12-15T17:52:58.945Z,-0.32
2018-12-15T17:55:28.549Z,-0.19
2018-12-15T17:57:58.557Z,-0.20
2018-12-15T18:00:29.081Z,-0.21
2018-12-15T18:02:58.639Z,-0.23
2018-12-15T18:05:28.301Z,-0.22
2018-12-15T18:07:58.741Z,-0.25
2018-12-15T18:10:28.383Z,-0.16
2018-12-15T18:12:58.157Z,-0.17
2018-12-15T18:15:28.148Z,-0.15
2018-12-15T18:17:57.789Z,-0.19
2018-12-15T18:20:27.493Z,-0.18
2018-12-15T18:22:57.305Z,-0.13
2018-12-15T18:25:26.924Z,-0.18
2018-12-15T18:27:56.483Z,-0.13
2018-12-15T18:30:26.088Z,-0.18
2018-12-15T18:32:55.710Z,-0.16
2018-12-15T18:35:25.221Z,-0.22
2018-12-15T18:37:54.804Z,-0.22
2018-12-15T18:40:24.383Z,-0.23
2018-12-15T18:42:54.706Z,-0.27
2018-12-15T18:45:24.417Z,-0.12
2018-12-15T18:47:54.060Z,-0.21
2018-12-15T18:50:23.667Z,-0.17
2018-12-15T18:52:53.236Z,-0.21
2018-12-15T18:55:22.910Z,-0.24
2018-12-15T18:57:52.439Z,-0.22
2018-12-15T19:00:22.003Z,-0.22
2018-12-15T19:02:51.617Z,-0.19
2018-12-15T19:05:21.274Z,-0.31
2018-12-15T19:07:50.854Z,-0.28
2018-12-15T19:10:20.568Z,-0.33
2018-12-15T19:12:50.172Z,-0.28
2018-12-15T19:15:19.858Z,-0.23
2018-12-15T19:17:49.463Z,-0.26
2018-12-15T19:20:19.152Z,-0.31
2018-12-15T19:22:48.751Z,-0.34
2018-12-15T19:25:18.423Z,-0.37
2018-12-15T19:27:48.906Z,-0.39
2018-12-15T19:30:18.617Z,-0.41
2018-12-15T19:32:48.273Z,-0.39
2018-12-15T19:35:17.839Z,-0.44
2018-12-15T19:37:47.441Z,-0.36
2018-12-15T19:40:17.072Z,-0.39
2018-12-15T19:42:46.612Z,-0.41
2018-12-15T19:45:16.233Z,-0.36
2018-12-15T19:47:45.923Z,-0.29
2018-12-15T19:50:15.596Z,-0.38
2018-12-15T19:52:45.660Z,-0.41
2018-12-15T19:55:15.268Z,-0.48
2018-12-15T19:57:44.888Z,-0.46
2018-12-15T20:00:14.687Z,-0.40
2018-12-15T20:02:44.331Z,-0.39
2018-12-15T20:05:13.985Z,-0.37
2018-12-15T20:07:43.680Z,-0.43
2018-12-15T20:10:13.318Z,-0.42
2018-12-15T20:12:42.973Z,-0.40
2018-12-15T20:15:12.592Z,-0.30
2018-12-15T20:17:42.570Z,-0.39
2018-12-15T20:20:12.168Z,-0.37
2018-12-15T20:22:41.816Z,-0.34
2018-12-15T20:25:11.375Z,-0.36
2018-12-15T20:27:41.014Z,-0.35
2018-12-15T20:30:11.343Z,-0.42
2018-12-15T20:32:41.070Z,-0.36
2018-12-15T20:35:10.953Z,-0.37
2018-12-15T20:37:40.680Z,-0.39
2018-12-15T20:40:10.593Z,-0.33
2018-12-15T20:42:40.271Z,-0.38
2018-12-15T20:45:10.027Z,-0.43
2018-12-15T20:47:39.622Z,-0.39
2018-12-15T20:50:09.326Z,-0.43
2018-12-15T20:52:38.972Z,-0.45
2018-12-15T20:55:08.690Z,-0.42
2018-12-15T20:57:39.188Z,-0.42
2018-12-15T21:00:09.492Z,-0.35
2018-12-15T21:02:39.264Z,-0.40
2018-12-15T21:05:08.851Z,-0.43
2018-12-15T21:07:38.570Z,-0.38
2018-12-15T21:10:08.406Z,-0.60
2018-12-15T21:12:37.979Z,-0.35
2018-12-15T21:15:12.577Z,-0.36
2018-12-15T21:17:42.293Z,-0.40
2018-12-15T21:20:12.594Z,-0.38
2018-12-15T21:22:42.280Z,-0.37
2018-12-15T21:25:11.848Z,-0.45
2018-12-15T21:27:41.437Z,-0.41
2018-12-15T21:30:11.992Z,-0.43
2018-12-15T21:32:41.591Z,-0.43
2018-12-15T21:35:11.159Z,-0.44
2018-12-15T21:37:41.479Z,-0.42
2018-12-15T21:40:11.113Z,-0.47
2018-12-15T21:42:40.851Z,-0.36
2018-12-15T21:45:10.582Z,-0.39
2018-12-15T21:47:41.756Z,-0.39
2018-12-15T21:50:11.716Z,-0.48
2018-12-15T21:52:41.382Z,-0.47
2018-12-15T21:55:11.884Z,-0.48
2018-12-15T21:57:41.491Z,-0.50
2018-12-15T22:00:11.367Z,-0.39
2018-12-15T22:02:40.961Z,-0.44
2018-12-15T22:05:10.692Z,-0.47
2018-12-15T22:07:40.398Z,-0.45
2018-12-15T22:10:10.317Z,-0.46
2018-12-15T22:12:40.081Z,-0.41
2018-12-15T22:15:10.888Z,-0.51
2018-12-15T22:17:40.566Z,-0.39
2018-12-15T22:20:10.541Z,-0.38
2018-12-15T22:22:40.824Z,-0.32
2018-12-15T22:25:10.520Z,-0.31
2018-12-15T22:27:40.019Z,-0.32
2018-12-15T22:30:10.151Z,-0.28
2018-12-15T22:32:39.854Z,-0.30
2018-12-15T22:35:09.454Z,-0.31
2018-12-15T22:37:39.830Z,-0.30
2018-12-15T22:40:09.514Z,-0.36
2018-12-15T22:42:39.168Z,-0.38
2018-12-15T22:45:08.794Z,-0.35
2018-12-15T22:47:38.308Z,-0.27
2018-12-15T22:50:08.728Z,-0.27
2018-12-15T22:52:38.463Z,-0.27
2018-12-15T22:55:08.060Z,-0.30
2018-12-15T22:57:37.599Z,-0.20
2018-12-15T23:00:09.105Z,-0.30
2018-12-15T23:02:38.661Z,-0.33
2018-12-15T23:05:08.313Z,-0.34
2018-12-15T23:07:37.884Z,-0.27
2018-12-15T23:10:08.481Z,-0.32
2018-12-15T23:12:38.089Z,-0.29
2018-12-15T23:15:09.386Z,-0.30
2018-12-15T23:17:38.991Z,-0.30
2018-12-15T23:20:09.025Z,-0.31
2018-12-15T23:22:38.604Z,-0.35
2018-12-15T23:25:08.408Z,-0.45
2018-12-15T23:27:38.047Z,-0.54
2018-12-15T23:30:08.267Z,-0.47
2018-12-15T23:32:37.831Z,-0.50
2018-12-15T23:35:07.447Z,-0.53
2018-12-15T23:37:37.056Z,-0.57
2018-12-15T23:40:06.895Z,-0.64
2018-12-15T23:42:36.620Z,-0.64
2018-12-15T23:45:06.771Z,-0.46
2018-12-15T23:47:36.412Z,-0.50
2018-12-15T23:50:06.512Z,-0.50
2018-12-15T23:52:36.185Z,-0.47
2018-12-15T23:55:05.918Z,-0.54
2018-12-15T23:57:35.510Z,-0.57
